createdAt,value
2023-01-31T00:02:39.859Z,3.43
2023-01-31T00:07:44.650Z,3.90
2023-01-31T00:12:53.774Z,3.73
2023-01-31T00:18:03.429Z,4.07
2023-01-31T00:23:08.666Z,4.50
2023-01-31T00:28:10.559Z,4.57
2023-01-31T00:33:12.420Z,3.93
2023-01-31T00:38:27.859Z,4.97
2023-01-31T00:43:33.141Z,4.87
2023-01-31T00:48:45.372Z,2.97
2023-01-31T00:53:47.673Z,4.20
2023-01-31T00:58:55.911Z,4.47
2023-01-31T01:04:09.519Z,4.07
2023-01-31T01:09:31.590Z,3.63
2023-01-31T01:15:10.840Z,3.97
2023-01-31T01:20:20.475Z,3.53
2023-01-31T01:25:25.955Z,3.47
2023-01-31T01:30:27.889Z,4.43
2023-01-31T01:35:36.986Z,3.80
2023-01-31T01:40:38.972Z,4.23
2023-01-31T01:45:45.630Z,3.57
2023-01-31T01:50:49.015Z,4.77
2023-01-31T01:56:00.886Z,3.30
2023-01-31T02:01:07.677Z,3.97
2023-01-31T02:06:15.074Z,4.17
2023-01-31T02:11:29.898Z,4.03
2023-01-31T02:16:31.849Z,2.73
2023-01-31T02:22:01.755Z,4.07
2023-01-31T02:27:25.770Z,3.60
2023-01-31T02:33:09.819Z,4.47
2023-01-31T02:38:37.699Z,4.53
2023-01-31T02:44:23.616Z,3.83
2023-01-31T02:50:04.414Z,4.33
2023-01-31T02:55:46.090Z,5.70
2023-01-31T03:01:01.704Z,3.40
2023-01-31T03:06:45.930Z,3.83
2023-01-31T03:12:31.472Z,4.57
2023-01-31T03:17:58.838Z,4.83
2023-01-31T03:23:08.541Z,3.20
2023-01-31T03:28:21.791Z,4.33
2023-01-31T03:33:34.924Z,5.37
2023-01-31T03:38:44.260Z,4.37
2023-01-31T03:44:22.890Z,4.93
2023-01-31T03:49:35.924Z,4.67
2023-01-31T03:54:44.518Z,5.07
2023-01-31T03:59:55.922Z,3.83
2023-01-31T04:05:24.117Z,4.87
2023-01-31T04:10:35.355Z,5.30
2023-01-31T04:15:48.931Z,4.87
2023-01-31T04:20:53.460Z,4.33
2023-01-31T04:26:06.292Z,7.30
2023-01-31T04:31:08.291Z,4.77
2023-01-31T04:36:10.363Z,4.30
2023-01-31T04:41:20.667Z,4.43
2023-01-31T04:46:32.071Z,5.33
2023-01-31T04:51:35.079Z,4.77
2023-01-31T04:56:43.938Z,5.03
2023-01-31T05:01:47.543Z,4.03
2023-01-31T05:06:56.792Z,4.80
2023-01-31T05:12:03.615Z,5.57
2023-01-31T05:17:10.221Z,4.93
2023-01-31T05:22:17.621Z,5.40
2023-01-31T05:27:35.084Z,4.33
2023-01-31T05:33:02.819Z,5.23
2023-01-31T05:38:04.681Z,5.90
2023-01-31T05:43:08.059Z,5.63
2023-01-31T05:48:12.894Z,5.30
2023-01-31T05:53:31.513Z,4.97
2023-01-31T05:58:38.547Z,4.50
2023-01-31T06:03:43.694Z,6.23
2023-01-31T06:08:48.154Z,6.40
2023-01-31T06:14:03.126Z,7.00
2023-01-31T06:19:07.005Z,6.30
2023-01-31T06:35:18.516Z,7.70
2023-01-31T06:40:23.283Z,5.93
2023-01-31T06:45:33.019Z,6.00
2023-01-31T06:50:37.250Z,6.50
2023-01-31T06:55:42.779Z,7.43
2023-01-31T07:00:44.714Z,7.63
2023-01-31T07:05:51.447Z,8.17
2023-01-31T07:10:53.574Z,7.97
2023-01-31T07:16:00.334Z,7.90
2023-01-31T07:21:02.152Z,10.43
2023-01-31T07:26:07.908Z,8.63
2023-01-31T07:31:17.535Z,8.17
2023-01-31T07:36:27.947Z,9.20
2023-01-31T07:41:32.198Z,8.60
2023-01-31T07:46:39.442Z,8.77
2023-01-31T07:51:42.288Z,9.07
2023-01-31T07:56:47.857Z,8.40
2023-01-31T08:02:29.468Z,9.17
2023-01-31T08:07:53.347Z,9.07
2023-01-31T08:12:59.053Z,10.63
2023-01-31T08:18:16.025Z,7.90
2023-01-31T08:23:25.748Z,8.77
2023-01-31T08:29:04.194Z,9.00
2023-01-31T08:34:23.507Z,7.47
2023-01-31T08:39:28.260Z,8.87
2023-01-31T08:44:42.272Z,9.10
2023-01-31T08:49:47.583Z,8.13
2023-01-31T08:54:59.163Z,8.30
2023-01-31T09:00:07.900Z,9.13
2023-01-31T09:05:17.864Z,7.97
2023-01-31T09:10:35.564Z,8.13
2023-01-31T09:15:42.728Z,7.33
2023-01-31T09:26:04.606Z,9.17
2023-01-31T09:31:32.310Z,7.40
2023-01-31T09:36:42.737Z,6.57
2023-01-31T09:47:51.647Z,7.67
2023-01-31T09:53:03.564Z,7.33
2023-01-31T09:58:52.406Z,9.27
2023-01-31T10:04:33.404Z,7.03
2023-01-31T10:09:55.788Z,7.33
2023-01-31T10:15:16.877Z,8.27
2023-01-31T10:20:51.189Z,7.53
2023-01-31T10:26:18.696Z,6.47
2023-01-31T10:31:33.443Z,7.77
2023-01-31T10:37:01.375Z,8.53
2023-01-31T10:42:45.061Z,8.60
2023-01-31T10:48:19.120Z,9.47
2023-01-31T10:53:38.923Z,8.63
2023-01-31T10:59:00.636Z,9.90
2023-01-31T11:04:28.611Z,7.57
2023-01-31T11:09:50.725Z,8.83
2023-01-31T11:15:37.879Z,9.50
2023-01-31T11:20:57.946Z,11.23
2023-01-31T11:26:33.527Z,10.53
2023-01-31T11:31:58.916Z,10.93
2023-01-31T11:43:01.764Z,11.53
2023-01-31T11:48:26.404Z,11.13
2023-01-31T11:53:51.166Z,12.00
2023-01-31T11:59:16.903Z,12.03
2023-01-31T12:04:46.899Z,13.30
2023-01-31T12:10:01.329Z,13.00
2023-01-31T12:15:15.021Z,14.67
2023-01-31T12:20:50.449Z,14.20
2023-01-31T12:26:08.064Z,13.50
2023-01-31T12:31:46.428Z,14.13
2023-01-31T12:37:29.094Z,15.77
2023-01-31T12:43:09.466Z,14.27
2023-01-31T12:54:48.913Z,16.23
2023-01-31T13:00:26.213Z,17.73
2023-01-31T13:05:41.819Z,16.60
2023-01-31T13:11:29.245Z,18.23
2023-01-31T13:17:00.432Z,17.33
2023-01-31T13:22:35.067Z,17.57
2023-01-31T13:27:57.864Z,17.90
2023-01-31T13:33:07.712Z,17.00
2023-01-31T13:38:24.140Z,17.50
2023-01-31T13:43:42.925Z,17.50
2023-01-31T13:49:04.385Z,17.43
2023-01-31T13:54:52.819Z,18.23
2023-01-31T14:00:48.761Z,16.57
2023-01-31T14:06:25.187Z,15.93
2023-01-31T14:17:18.414Z,14.73
2023-01-31T14:22:37.614Z,14.67
2023-01-31T14:28:10.406Z,17.53
2023-01-31T14:39:27.450Z,13.77
2023-01-31T14:45:09.943Z,14.00
2023-01-31T14:50:22.440Z,13.37
2023-01-31T14:56:08.142Z,13.17
2023-01-31T15:01:28.580Z,12.23
2023-01-31T15:06:59.428Z,11.93
2023-01-31T15:12:01.481Z,11.07
2023-01-31T15:17:40.514Z,10.50
2023-01-31T15:23:01.508Z,11.00
2023-01-31T15:28:13.272Z,12.20
2023-01-31T15:33:55.386Z,11.60
2023-01-31T15:39:43.177Z,11.47
2023-01-31T15:45:01.520Z,11.60
2023-01-31T15:50:26.915Z,13.03
2023-01-31T15:55:44.992Z,13.83
2023-01-31T16:01:11.532Z,12.93
2023-01-31T16:06:37.667Z,14.07
2023-01-31T16:11:51.661Z,13.33
2023-01-31T16:22:35.119Z,13.70
2023-01-31T16:28:01.289Z,14.93
2023-01-31T16:33:43.357Z,15.00
2023-01-31T16:39:02.599Z,13.40
2023-01-31T16:44:04.567Z,13.60
2023-01-31T16:49:34.608Z,14.40
2023-01-31T16:55:16.907Z,14.70
2023-01-31T17:00:58.747Z,20.67
2023-01-31T17:06:05.170Z,14.00
2023-01-31T17:11:28.992Z,15.40
2023-01-31T17:23:13.590Z,14.93
2023-01-31T17:27:55.407Z,52.00
2023-01-31T17:38:49.398Z,14.93
2023-01-31T17:43:52.360Z,12.13
2023-01-31T17:48:56.417Z,10.03
2023-01-31T17:54:09.792Z,10.40
2023-01-31T17:59:28.908Z,9.83
2023-01-31T18:17:20.359Z,9.13
2023-01-31T18:22:34.250Z,8.23
2023-01-31T18:28:25.821Z,9.07
2023-01-31T18:46:30.291Z,8.43
2023-01-31T18:57:36.867Z,6.93
2023-01-31T19:02:43.462Z,7.23
2023-01-31T19:07:45.752Z,7.47
2023-01-31T19:18:12.993Z,7.80
2023-01-31T19:23:20.645Z,6.47
2023-01-31T19:44:27.190Z,5.07
2023-01-31T19:55:05.835Z,5.07
2023-01-31T20:00:53.058Z,4.50
2023-01-31T20:06:42.809Z,4.00
2023-01-31T20:11:47.760Z,3.90
2023-01-31T20:16:53.608Z,37.67
2023-01-31T20:22:07.275Z,9.20
2023-01-31T20:27:11.213Z,5.07
2023-01-31T20:32:18.202Z,3.87
2023-01-31T20:37:34.321Z,3.33
2023-01-31T20:42:38.902Z,4.53
2023-01-31T20:58:42.924Z,3.23
2023-01-31T21:03:52.076Z,4.43
2023-01-31T21:08:59.952Z,4.23
2023-01-31T21:25:33.888Z,2.97
2023-01-31T21:36:03.128Z,15.77
2023-01-31T21:41:44.258Z,4.60
2023-01-31T21:52:12.296Z,4.77
2023-01-31T21:57:26.003Z,4.50
2023-01-31T22:02:40.845Z,5.27
2023-01-31T22:07:45.830Z,4.17
2023-01-31T22:13:02.647Z,3.97
2023-01-31T22:18:12.366Z,4.73
2023-01-31T22:23:18.800Z,4.70
2023-01-31T22:28:30.524Z,3.77
2023-01-31T22:33:37.796Z,3.33
2023-01-31T22:38:50.009Z,6.03
2023-01-31T22:44:20.314Z,3.40
2023-01-31T22:49:27.956Z,3.30
2023-01-31T22:54:33.693Z,4.83
2023-01-31T22:59:39.780Z,4.10
2023-01-31T23:04:50.857Z,3.50
2023-01-31T23:10:07.316Z,5.43
2023-01-31T23:15:41.969Z,4.23
2023-01-31T23:20:47.932Z,3.33
2023-01-31T23:26:24.316Z,4.63
2023-01-31T23:31:42.403Z,4.83
2023-01-31T23:36:44.300Z,3.90
2023-01-31T23:42:27.786Z,3.33
2023-01-31T23:47:58.152Z,4.00
2023-01-31T23:53:19.837Z,4.97
2023-01-31T23:58:31.704Z,3.80
